Penacook, New Hampshire
Current Conditions -  °F | °C
As of 9:58 AM on Wednesday 22 Oct 2014 (Local Time) from KCON Reporting Station
Light Rain Light Rain  
Wind Chill: 43°   Ceiling: 1300
Heat Index: 48°   Visibility: 2.5mi
Dew Point: 46°   Wind: 10mph
Humidity: 93%   Direction: 30°NNE
Pressure: 30.11"   Gusts: NA
Location:  43.3208°N, 71.6638°W
Report Text: KCON 221358Z AUTO 03009KT 2 1/2SM -RA BR FEW009 BKN013 OVC019 09/08 A3011 RMK AO2 P0000 T00890078
Loading
Personal Weather Stations






























Interactive Weather Map
Tropical Storm Tracking
New forecast layout! Learn more

10-Day Weather Forecast

Advertisements
Track Severe Weather on mobile